FNHUFNMA

Guest
Details From FNHU - Huambo
To FNMA - Malanje
Flight Number -
Tags Generated
Created
Modified
Stats Distance 200 nm / 371 km
Max Altitude 0 ft / 0 m
Waypoints 2
Social Downloads 2
Likes 0
Share VATSIM

Download

Looking for another format? Having issues loading an existing format? Contact us
Advertisement - Login to hide

Notes

Generated

Route

FNHU FNMA

ID Type Via Altitude Latitude Longitude Leg Dist Tot Dist Heading (true) Name
O FNHU APT - 0 ft / 0 m -12.80666˚ 15.74851˚ - 0 nm - -
O FNMA APT - 0 ft / 0 m -9.51962˚ 16.30400˚ 200 nm 200 nm 9° / 9° -

Altitude Profile

Advertisement - Login to hide

Weather


0- 5 10 15 20 25 30 35+ Temperature / ° C

Clouds and Precipitation
Forecast for 2017-12-13 18:00 UTC. Updated 4 minutes ago

Ground ~20,000 ft ~40,000 ft Winds

FNHU

Details ICAO FNHU (NOV)
Name HUAMBO
Region Angola
Timezone Africa/Luanda (UTC+1.0)
Stats Elevation 5,587 ft / 1,703 m (AMSL)
Location -12.808878° 15.760546°
Runways 1
Magnetic Variation 4.481° W

METAR

FNHU 131600Z 00000KT 5000 RA BKN014 19/17 Q1019

Decode

TAF

TAF TAF FNHU 131045Z 1312/1324 26006KT 9999 FEW020 SCT022 FEW025TCU PROB30 TEMPO 1312/1318 7000 -DZ FEW016 SCT018 FEW022CB

Decode

Departure Runways

ID Width Length Bearing (true) Bearing (mag) Surface Threshold Offset Overrun Length
11 148 ft / 45 m 8,714 ft / 2,656 m 100.69° 105.17° Asphalt 0 ft / 0 m 0 ft / 0 m
29 148 ft / 45 m 8,714 ft / 2,656 m 280.68° 285.16° Asphalt 0 ft / 0 m 0 ft / 0 m

FNMA

Details ICAO FNMA (MEG)
Name MALANJE
Region Angola
Timezone Africa/Luanda (UTC+1.0)
Stats Elevation 3,868 ft / 1,179 m (AMSL)
Location -9.525085° 16.312406°
Runways 1
Magnetic Variation 2.771° W

METAR

Not found

TAF

TAF FNMA 131045Z 1312/1324 28007KT 9999 FEW016 BKN018 TEMPO 1314/1320 8000 -DZRA FEW012 BKN014 FEW016CB

Decode

Destination Runways

ID Width Length Bearing (true) Bearing (mag) Surface Threshold Offset Overrun Length
13 98 ft / 30 m 7,247 ft / 2,209 m 123.40° 126.17° Asphalt 0 ft / 0 m 0 ft / 0 m
31 98 ft / 30 m 7,247 ft / 2,209 m 303.40° 306.17° Asphalt 0 ft / 0 m 0 ft / 0 m